Time;durP1;ratioP1;P1;durP2;ratioP2;P2;SDS_P1;SDS_P2;PMS_P1;PMS_P2;Temp;Humidity;BMP_temperature;BMP_pressure;BME280_temperature;BME280_humidity;BME280_pressure;Samples;Min_cycle;Max_cycle;Signal;HPM_P1;HPM_P2
2023/06/23 01:39:24;;;;;;;;;;;;;;;;;;;;;
2023/06/23 01:42:12;;;;;;;;;26.67;26.67;;;;;;;;4790386;29;57411;-96
2023/06/23 01:48:17;;;;;;;;;;;;;;;;;;;;;
2023/06/23 01:56:56;;;;;;;;;28.67;24.33;;;;;;;;4728490;30;28616;-96
2023/06/23 02:00:15;;;;;;;;;;;;;;;;;;;;;
2023/06/23 02:02:55;;;;;;;;;44.75;36.00;;;;;;;;4781854;29;28253;-96
2023/06/23 02:06:01;;;;;;;;;48.00;41.25;;;;;;;;4781654;29;27930;-96
2023/06/23 02:08:54;;;;;;;;;48.75;40.75;;;;;;;;4788828;29;28279;-96
2023/06/23 02:11:23;;;;;;;;;44.50;38.00;;;;;;;;4717091;30;27974;-96
2023/06/23 02:13:56;;;;;;;;;43.75;36.00;;;;;;;;4771702;29;28882;-96
2023/06/23 02:16:55;;;;;;;;;;;;;;;;;;;;;
2023/06/23 02:19:43;;;;;;;;;40.25;35.00;;;;;;;;4780586;29;28472;-96
2023/06/23 02:22:26;;;;;;;;;;;;;;;;;;;;;
2023/06/23 02:24:56;;;;;;;;;39.50;33.75;;;;;;;;4775844;29;58433;-96
2023/06/23 02:27:51;;;;;;;;;;;;;;;;;;;;;
2023/06/23 02:30:27;;;;;;;;;35.25;33.75;;;;;;;;4776429;29;28290;-96
2023/06/23 02:33:19;;;;;;;;;33.50;29.25;;;;;;;;4791351;29;28275;-96
2023/06/23 02:36:04;;;;;;;;;29.75;27.50;;;;;;;;4776210;29;28471;-96
2023/06/23 02:38:36;;;;;;;;;31.33;29.33;;;;;;;;4790720;29;28826;-96
2023/06/23 02:41:38;;;;;;;;;34.25;33.00;;;;;;;;4773624;29;27859;-96
2023/06/23 02:44:26;;;;;;;;;28.67;27.33;;;;;;;;4780163;29;28889;-96
2023/06/23 02:47:12;;;;;;;;;24.33;22.67;;;;;;;;4783378;29;30378;-96
2023/06/23 02:49:40;;;;;;;;;24.00;24.00;;;;;;;;4793918;29;27831;-96
2023/06/23 02:52:36;;;;;;;;;22.00;22.00;;;;;;;;4791138;29;27930;-96
2023/06/23 02:55:28;;;;;;;;;27.50;25.50;;;;;;;;4778503;29;27933;-96
2023/06/23 02:58:16;;;;;;;;;30.50;29.00;;;;;;;;4789222;29;30105;-96
2023/06/23 03:00:42;;;;;;;;;29.00;28.25;;;;;;;;4800624;29;27757;-96
2023/06/23 03:03:14;;;;;;;;;28.75;28.25;;;;;;;;4782477;29;28350;-96
2023/06/23 03:05:54;;;;;;;;;24.00;24.00;;;;;;;;4796827;29;28459;-96
2023/06/23 03:08:23;;;;;;;;;29.00;29.00;;;;;;;;4783533;29;28402;-96
2023/06/23 03:11:01;;;;;;;;;;;;;;;;;;;;;
2023/06/23 03:13:54;;;;;;;;;35.67;28.33;;;;;;;;4779965;29;28468;-96
2023/06/23 03:16:47;;;;;;;;;28.33;26.67;;;;;;;;4783830;29;27930;-96
2023/06/23 03:19:26;;;;;;;;;28.67;28.00;;;;;;;;4796471;29;30022;-96
2023/06/23 03:22:17;;;;;;;;;37.00;35.75;;;;;;;;4797242;29;29059;-96
2023/06/23 03:24:48;;;;;;;;;27.67;27.67;;;;;;;;4792998;29;27906;-96
2023/06/23 03:27:36;;;;;;;;;24.67;23.67;;;;;;;;4785742;29;28274;-96
2023/06/23 03:30:39;;;;;;;;;33.00;31.00;;;;;;;;4799227;29;30441;-96
2023/06/23 03:33:14;;;;;;;;;19.00;19.00;;;;;;;;4713475;30;27832;-96
2023/06/23 03:35:53;;;;;;;;;19.00;19.00;;;;;;;;4712966;30;28830;-96
2023/06/23 03:38:34;;;;;;;;;14.33;14.33;;;;;;;;4700814;30;28558;-96
2023/06/23 03:41:06;;;;;;;;;18.00;18.00;;;;;;;;4708954;30;28294;-96
2023/06/23 03:44:11;;;;;;;;;;;;;;;;;;;;;
2023/06/23 03:46:58;;;;;;;;;20.67;19.33;;;;;;;;4673245;30;53643;-96
2023/06/23 03:49:57;;;;;;;;;22.00;21.33;;;;;;;;4716309;30;27944;-96
2023/06/23 03:55:52;;;;;;;;;18.00;18.00;;;;;;;;4756283;30;27813;-96
2023/06/23 03:58:37;;;;;;;;;19.33;19.00;;;;;;;;4784343;29;27799;-96
2023/06/23 04:01:32;;;;;;;;;;;;;;;;;;;;;
2023/06/23 04:04:16;;;;;;;;;;;;;;;;;;;;;
2023/06/23 04:07:12;;;;;;;;;;;;;;;;;;;;;
2023/06/23 04:10:05;;;;;;;;;19.00;19.00;;;;;;;;4761832;29;27928;-96
2023/06/23 04:12:59;;;;;;;;;;;;;;;;;;;;;
2023/06/23 04:15:53;;;;;;;;;21.67;21.67;;;;;;;;4790831;29;58916;-96
2023/06/23 04:18:50;;;;;;;;;;;;;;;;;;;;;
2023/06/23 04:21:38;;;;;;;;;25.33;24.00;;;;;;;;4775848;29;54849;-96
2023/06/23 04:24:22;;;;;;;;;25.67;25.67;;;;;;;;4781419;29;27962;-96
2023/06/23 04:27:17;;;;;;;;;18.67;18.67;;;;;;;;4786369;29;28679;-96
2023/06/23 04:29:55;;;;;;;;;19.67;19.00;;;;;;;;4779829;29;28963;-96
2023/06/23 04:32:25;;;;;;;;;21.00;21.00;;;;;;;;4777685;29;27842;-96
2023/06/23 04:34:59;;;;;;;;;21.67;21.67;;;;;;;;4767344;29;28582;-96
2023/06/23 04:38:03;;;;;;;;;23.00;21.67;;;;;;;;4775250;29;28340;-96
2023/06/23 04:47:28;;;;;;;;;29.33;27.00;;;;;;;;4768258;29;28030;-96
2023/06/23 04:50:57;;;;;;;;;22.67;20.00;;;;;;;;4779176;29;28122;-96
2023/06/23 04:54:06;;;;;;;;;;;;;;;;;;;;;
2023/06/23 05:00:28;;;;;;;;;;;;;;;;;;;;;
2023/06/23 05:08:43;;;;;;;;;21.33;21.33;;;;;;;;4893472;24;28273;-96
2023/06/23 05:11:41;;;;;;;;;24.00;24.00;;;;;;;;4772306;29;27831;-95
2023/06/23 07:24:28;;;;;;;;;11.67;11.00;;;;;;;;5565166;24;28926;-95
2023/06/23 07:26:56;;;;;;;;;11.67;11.67;;;;;;;;4800378;29;28737;-95
2023/06/23 07:29:21;;;;;;;;;10.33;10.00;;;;;;;;4806443;29;28476;-93
2023/06/23 07:31:46;;;;;;;;;13.33;13.33;;;;;;;;4827614;29;28433;-94
2023/06/23 07:34:12;;;;;;;;;11.33;11.33;;;;;;;;4826570;29;29085;-93
2023/06/23 07:36:39;;;;;;;;;9.00;9.00;;;;;;;;4832458;29;28567;-95
2023/06/23 07:42:07;;;;;;;;;6.67;6.67;;;;;;;;4824053;29;28560;-95
2023/06/23 07:44:36;;;;;;;;;9.67;9.67;;;;;;;;4825638;29;29348;-95
2023/06/23 07:47:01;;;;;;;;;8.00;8.00;;;;;;;;4803193;29;30155;-96
2023/06/23 07:56:02;;;;;;;;;5.67;5.67;;;;;;;;4705282;29;29329;-96
2023/06/23 07:58:27;;;;;;;;;5.67;5.67;;;;;;;;4807722;29;28610;-96
2023/06/23 08:00:53;;;;;;;;;6.67;6.67;;;;;;;;4824873;29;28518;-95
2023/06/23 08:03:18;;;;;;;;;5.67;5.67;;;;;;;;4811191;29;28399;-95
2023/06/23 08:05:44;;;;;;;;;6.33;6.33;;;;;;;;4821816;29;28481;-95
2023/06/23 08:08:09;;;;;;;;;5.67;5.67;;;;;;;;4824211;29;28564;-95
2023/06/23 08:10:35;;;;;;;;;5.33;5.33;;;;;;;;4802859;29;28557;-95
2023/06/23 08:13:00;;;;;;;;;3.67;3.67;;;;;;;;4809482;29;28463;-95
2023/06/23 08:15:26;;;;;;;;;6.33;6.33;;;;;;;;4827465;29;29671;-96
2023/06/23 08:17:51;;;;;;;;;6.67;6.67;;;;;;;;4809153;29;29613;-95
2023/06/23 08:20:16;;;;;;;;;7.00;7.00;;;;;;;;4827701;29;28657;-95
2023/06/23 08:22:42;;;;;;;;;3.67;3.67;;;;;;;;4806243;29;28558;-95
2023/06/23 08:25:08;;;;;;;;;5.33;5.33;;;;;;;;4826302;29;28482;-95
2023/06/23 08:27:33;;;;;;;;;7.00;7.00;;;;;;;;4809755;29;28685;-96
2023/06/23 08:29:58;;;;;;;;;6.00;6.00;;;;;;;;4823092;29;28408;-96
2023/06/23 08:32:24;;;;;;;;;4.00;4.00;;;;;;;;4824369;29;28471;-96
2023/06/23 08:34:49;;;;;;;;;5.33;5.33;;;;;;;;4826873;29;28412;-96
2023/06/23 08:37:14;;;;;;;;;5.00;5.00;;;;;;;;4826604;29;28856;-95
2023/06/23 08:39:40;;;;;;;;;7.00;7.00;;;;;;;;4825451;29;28320;-96
2023/06/23 08:42:05;;;;;;;;;6.33;6.33;;;;;;;;4822371;29;28537;-96
2023/06/23 08:44:32;;;;;;;;;6.00;6.00;;;;;;;;4824913;29;28636;-94
2023/06/23 08:46:58;;;;;;;;;5.67;5.67;;;;;;;;4824058;29;28335;-95
2023/06/23 08:49:24;;;;;;;;;7.00;6.00;;;;;;;;4826015;29;28604;-94
2023/06/23 08:51:50;;;;;;;;;3.33;3.33;;;;;;;;4827329;29;28454;-94
2023/06/23 08:54:15;;;;;;;;;5.00;5.00;;;;;;;;4826944;29;28416;-96
2023/06/23 08:56:40;;;;;;;;;5.33;5.33;;;;;;;;4825076;29;28449;-94
2023/06/23 08:59:05;;;;;;;;;4.00;4.00;;;;;;;;4826080;29;28332;-95
2023/06/23 09:01:31;;;;;;;;;5.33;5.33;;;;;;;;4824857;29;28830;-96
2023/06/23 09:03:56;;;;;;;;;3.67;3.67;;;;;;;;4826225;29;28497;-95
2023/06/23 09:06:21;;;;;;;;;4.00;4.00;;;;;;;;4824636;29;28471;-95
2023/06/23 09:08:49;;;;;;;;;6.00;6.00;;;;;;;;4822856;29;28325;-96
2023/06/23 09:11:14;;;;;;;;;6.67;6.67;;;;;;;;4805184;29;29308;-95
2023/06/23 09:13:44;;;;;;;;;3.67;3.67;;;;;;;;4823733;29;30096;-95
2023/06/23 09:16:09;;;;;;;;;3.00;3.00;;;;;;;;4803163;29;30662;-95
2023/06/23 09:18:40;;;;;;;;;3.00;3.00;;;;;;;;4818941;29;29077;-96
2023/06/23 09:21:06;;;;;;;;;3.00;3.00;;;;;;;;4823970;29;29339;-94
2023/06/23 09:23:31;;;;;;;;;2.00;2.00;;;;;;;;4826155;29;29267;-95
2023/06/23 09:25:57;;;;;;;;;3.00;3.00;;;;;;;;4809598;29;29351;-95
2023/06/23 09:28:23;;;;;;;;;3.00;3.00;;;;;;;;4826266;29;28771;-95
2023/06/23 09:30:49;;;;;;;;;2.67;2.67;;;;;;;;4807332;29;29349;-95
2023/06/23 09:33:16;;;;;;;;;2.67;2.67;;;;;;;;4801452;29;31405;-95
2023/06/23 09:35:51;;;;;;;;;4.67;4.67;;;;;;;;4808237;29;29045;-95
2023/06/23 09:38:18;;;;;;;;;5.33;4.00;;;;;;;;4822550;29;29158;-95
2023/06/23 09:40:43;;;;;;;;;3.67;3.67;;;;;;;;4824350;29;28941;-95
2023/06/23 09:43:08;;;;;;;;;4.00;4.00;;;;;;;;4823794;29;29876;-96
2023/06/23 09:45:33;;;;;;;;;4.00;4.00;;;;;;;;4825684;29;28981;-95
2023/06/23 09:47:59;;;;;;;;;3.00;3.00;;;;;;;;4806500;29;29255;-95
2023/06/23 09:50:27;;;;;;;;;2.33;2.33;;;;;;;;4804213;29;29079;-94
2023/06/23 09:53:05;;;;;;;;;2.00;2.00;;;;;;;;4809363;29;31270;-95
2023/06/23 09:55:31;;;;;;;;;2.33;2.33;;;;;;;;4809128;29;29226;-95
2023/06/23 09:57:57;;;;;;;;;3.00;3.00;;;;;;;;4809457;29;29086;-94
2023/06/23 10:00:31;;;;;;;;;2.00;2.00;;;;;;;;4827210;29;29079;-95
2023/06/23 10:02:59;;;;;;;;;2.00;2.00;;;;;;;;4826456;29;29750;-94
2023/06/23 10:05:25;;;;;;;;;2.00;2.00;;;;;;;;4812011;29;29420;-94
2023/06/23 10:08:11;;;;;;;;;0.00;0.00;;;;;;;;4828021;29;28950;-96
2023/06/23 10:10:42;;;;;;;;;1.67;1.67;;;;;;;;4933714;24;28815;-94
2023/06/23 10:13:08;;;;;;;;;2.00;2.00;;;;;;;;4809324;29;33415;-95
2023/06/23 10:15:34;;;;;;;;;2.33;2.00;;;;;;;;4806975;29;304486;-96
2023/06/23 10:17:59;;;;;;;;;2.75;1.50;;;;;;;;3447389;29;8316326;-96
2023/06/23 10:20:24;;;;;;;;;2.00;2.00;;;;;;;;3202182;29;9877377;-96
2023/06/23 10:22:50;;;;;;;;;1.50;1.50;;;;;;;;3969579;29;3679553;-95
2023/06/23 10:25:17;;;;;;;;;1.00;1.00;;;;;;;;4635053;29;582751;-96
2023/06/23 10:27:43;;;;;;;;;2.00;2.00;;;;;;;;2916973;29;28001815;-96
2023/06/23 10:30:10;;;;;;;;;2.33;2.33;;;;;;;;4753300;29;1183545;-96
2023/06/23 10:32:36;;;;;;;;;2.00;2.00;;;;;;;;4808877;29;31110;-96
2023/06/23 10:35:06;;;;;;;;;1.00;1.00;;;;;;;;4807787;29;29561;-95
2023/06/23 10:37:32;;;;;;;;;1.67;1.67;;;;;;;;4810021;29;29439;-96
2023/06/23 10:40:00;;;;;;;;;2.33;2.33;;;;;;;;4807244;29;29519;-96
2023/06/23 10:42:27;;;;;;;;;2.00;2.00;;;;;;;;4725054;29;511294;-96
2023/06/23 10:44:53;;;;;;;;;2.00;2.00;;;;;;;;4015423;29;6901885;-96
2023/06/23 10:47:18;;;;;;;;;1.60;1.60;;;;;;;;2366837;29;27522491;-96
2023/06/23 10:49:44;;;;;;;;;2.00;2.00;;;;;;;;2984971;29;18813505;-96
2023/06/23 10:52:10;;;;;;;;;1.75;1.75;;;;;;;;3116028;29;8394931;-96
2023/06/23 10:54:35;;;;;;;;;1.33;1.33;;;;;;;;3389262;29;5050641;-96
2023/06/23 10:57:07;;;;;;;;;1.33;1.33;;;;;;;;4792807;29;29187;-96
2023/06/23 10:59:33;;;;;;;;;1.67;1.67;;;;;;;;4810131;29;29025;-96
2023/06/23 11:02:01;;;;;;;;;1.00;1.00;;;;;;;;4808948;29;28986;-96
2023/06/23 11:04:30;;;;;;;;;2.00;2.00;;;;;;;;4793450;29;29208;-96
2023/06/23 11:07:06;;;;;;;;;1.00;1.00;;;;;;;;4810030;29;29176;-96
2023/06/23 11:09:47;;;;;;;;;1.00;1.00;;;;;;;;4807941;29;29455;-96
2023/06/23 11:12:32;;;;;;;;;2.00;2.00;;;;;;;;4793531;29;28833;-96
2023/06/23 11:15:04;;;;;;;;;1.00;1.00;;;;;;;;4809279;29;28896;-96
2023/06/23 11:17:29;;;;;;;;;1.33;1.33;;;;;;;;4790307;29;31167;-96
2023/06/23 11:19:54;;;;;;;;;0.33;0.33;;;;;;;;4809042;29;29005;-96
2023/06/23 11:22:23;;;;;;;;;2.00;2.00;;;;;;;;4809686;29;29102;-95
2023/06/23 11:24:52;;;;;;;;;2.00;2.00;;;;;;;;4810056;29;29059;-96
2023/06/23 11:27:17;;;;;;;;;2.33;2.33;;;;;;;;4791123;29;30310;-96
2023/06/23 11:29:43;;;;;;;;;2.33;2.33;;;;;;;;4789885;29;30133;-95
2023/06/23 11:32:11;;;;;;;;;1.00;1.00;;;;;;;;4791531;29;29054;-96
2023/06/23 11:34:57;;;;;;;;;1.00;1.00;;;;;;;;4806031;29;28986;-96
2023/06/23 11:37:24;;;;;;;;;1.00;1.00;;;;;;;;4788273;29;30637;-96
2023/06/23 11:42:33;;;;;;;;;2.67;2.67;;;;;;;;5006939;24;38094;-95
2023/06/23 11:44:58;;;;;;;;;1.67;1.67;;;;;;;;4794942;29;50047;-96
2023/06/23 11:47:24;;;;;;;;;2.00;2.00;;;;;;;;4780206;29;39079;-96
2023/06/23 11:49:50;;;;;;;;;2.00;2.00;;;;;;;;4788890;29;35221;-96
2023/06/23 11:52:18;;;;;;;;;3.00;3.00;;;;;;;;4791637;29;29712;-96
2023/06/23 11:54:45;;;;;;;;;1.67;1.67;;;;;;;;4839267;24;36036;-95
2023/06/23 11:57:10;;;;;;;;;2.00;2.00;;;;;;;;4798364;29;31933;-95
2023/06/23 11:59:39;;;;;;;;;3.00;3.00;;;;;;;;4789455;29;32970;-96
2023/06/23 12:04:43;;;;;;;;;3.00;3.00;;;;;;;;4831486;29;29568;-96
2023/06/23 12:07:10;;;;;;;;;3.00;3.00;;;;;;;;4814181;29;41326;-96
2023/06/23 12:09:37;;;;;;;;;1.00;1.00;;;;;;;;4809125;29;35530;-96
2023/06/23 12:12:02;;;;;;;;;2.67;2.67;;;;;;;;4814880;29;29391;-95
2023/06/23 12:14:31;;;;;;;;;2.00;2.00;;;;;;;;4795445;29;29483;-96
2023/06/23 12:17:10;;;;;;;;;2.00;2.00;;;;;;;;4777117;29;33082;-96
2023/06/23 12:19:41;;;;;;;;;2.33;2.33;;;;;;;;4797366;29;29412;-96
2023/06/23 12:22:14;;;;;;;;;2.33;2.33;;;;;;;;4813633;29;30400;-96
2023/06/23 12:24:40;;;;;;;;;1.00;1.00;;;;;;;;4800644;29;32311;-94
2023/06/23 12:27:05;;;;;;;;;2.00;2.00;;;;;;;;4801511;29;31866;-93
2023/06/23 12:29:33;;;;;;;;;2.00;2.00;;;;;;;;4791549;29;28921;-95
2023/06/23 12:32:02;;;;;;;;;1.00;1.00;;;;;;;;4806179;29;28981;-96
2023/06/23 12:34:35;;;;;;;;;2.00;2.00;;;;;;;;4784680;29;29141;-95
2023/06/23 12:37:03;;;;;;;;;2.67;2.67;;;;;;;;4793439;29;28987;-94
2023/06/23 12:39:39;;;;;;;;;4.00;4.00;;;;;;;;4806301;29;28941;-96
2023/06/23 12:42:06;;;;;;;;;1.67;1.67;;;;;;;;5038296;24;29488;-96
2023/06/23 12:44:32;;;;;;;;;1.00;1.00;;;;;;;;4800709;29;29216;-96
2023/06/23 12:47:01;;;;;;;;;3.33;3.33;;;;;;;;4784892;29;32987;-94
2023/06/23 12:49:31;;;;;;;;;2.00;2.00;;;;;;;;4804031;29;28923;-96
2023/06/23 12:51:56;;;;;;;;;2.33;2.33;;;;;;;;4788160;29;28978;-94
2023/06/23 12:54:22;;;;;;;;;1.67;1.67;;;;;;;;4802655;29;28982;-96
2023/06/23 12:56:47;;;;;;;;;2.33;2.33;;;;;;;;4777060;29;31781;-95
2023/06/23 12:59:13;;;;;;;;;2.33;2.33;;;;;;;;4777068;29;29128;-95
2023/06/23 13:01:38;;;;;;;;;3.00;3.00;;;;;;;;4802317;29;29187;-95
2023/06/23 13:04:03;;;;;;;;;2.00;2.00;;;;;;;;4791371;29;29029;-95
2023/06/23 13:06:28;;;;;;;;;3.00;3.00;;;;;;;;4796083;29;31795;-94
2023/06/23 13:08:54;;;;;;;;;2.00;2.00;;;;;;;;4787545;29;29796;-95
2023/06/23 13:11:21;;;;;;;;;2.00;2.00;;;;;;;;4799812;29;30347;-96
2023/06/23 13:13:46;;;;;;;;;3.00;3.00;;;;;;;;4804719;29;28950;-96
2023/06/23 13:16:11;;;;;;;;;2.33;2.33;;;;;;;;4806075;29;28853;-96
2023/06/23 13:18:37;;;;;;;;;1.67;1.67;;;;;;;;4802231;29;29848;-96
2023/06/23 13:21:02;;;;;;;;;3.67;3.67;;;;;;;;4805264;29;28997;-96
2023/06/23 13:23:27;;;;;;;;;1.67;1.67;;;;;;;;4789880;29;29123;-96
2023/06/23 13:25:52;;;;;;;;;2.33;2.33;;;;;;;;4807672;29;28936;-96
2023/06/23 13:28:18;;;;;;;;;3.00;3.00;;;;;;;;5170523;24;29679;-96
2023/06/23 13:30:43;;;;;;;;;4.00;4.00;;;;;;;;4786559;29;29037;-96
2023/06/23 13:33:09;;;;;;;;;3.00;3.00;;;;;;;;4801847;29;29194;-95
2023/06/23 13:35:34;;;;;;;;;3.33;3.33;;;;;;;;4782372;29;31245;-96
2023/06/23 13:37:59;;;;;;;;;2.67;2.67;;;;;;;;4799892;29;30029;-96
2023/06/23 13:40:26;;;;;;;;;3.00;3.00;;;;;;;;4786249;29;29094;-93
2023/06/23 13:43:13;;;;;;;;;2.33;2.33;;;;;;;;4800069;29;29267;-96
2023/06/23 13:45:38;;;;;;;;;5.00;5.00;;;;;;;;4783592;29;31033;-94
2023/06/23 13:48:07;;;;;;;;;4.33;4.33;;;;;;;;4809160;29;28833;-96
2023/06/23 13:50:58;;;;;;;;;4.00;4.00;;;;;;;;4784511;29;29162;-90
2023/06/23 13:53:24;;;;;;;;;5.00;5.00;;;;;;;;4767679;29;29186;-96
2023/06/23 13:55:50;;;;;;;;;5.33;5.33;;;;;;;;4786533;29;29030;-96
2023/06/23 13:58:18;;;;;;;;;6.00;6.00;;;;;;;;4804865;29;28825;-96
2023/06/23 14:00:59;;;;;;;;;7.00;7.00;;;;;;;;4789131;29;29069;-96
2023/06/23 14:03:37;;;;;;;;;4.67;4.67;;;;;;;;4806393;29;30460;-96
2023/06/23 14:12:56;;;;;;;;;;;;;;;;;;;;;
2023/06/23 14:15:17;;;;;;;;;5.00;5.00;;;;;;;;4747259;29;29139;-96
2023/06/23 14:31:22;;;;;;;;;2.00;2.00;;;;;;;;4808981;29;29382;-95
2023/06/23 14:33:58;;;;;;;;;;;;;;;;;;;;;
2023/06/23 14:36:34;;;;;;;;;4.00;4.00;;;;;;;;4800706;29;52303;-95
2023/06/23 14:39:00;;;;;;;;;2.00;2.00;;;;;;;;4775317;29;30103;-95
2023/06/23 14:41:39;;;;;;;;;4.33;4.33;;;;;;;;4960486;24;28945;-95
2023/06/23 14:44:05;;;;;;;;;4.33;4.33;;;;;;;;4809609;29;28686;-96
2023/06/23 14:46:30;;;;;;;;;4.00;4.00;;;;;;;;4795713;29;28582;-96
2023/06/23 14:48:57;;;;;;;;;3.00;3.00;;;;;;;;4798207;29;28558;-96
2023/06/23 14:51:26;;;;;;;;;3.00;3.00;;;;;;;;4789183;29;28474;-96
2023/06/23 14:53:55;;;;;;;;;3.00;3.00;;;;;;;;4816003;29;28467;-96
2023/06/23 14:56:21;;;;;;;;;5.33;5.33;;;;;;;;4794872;29;28291;-96
2023/06/23 14:58:54;;;;;;;;;4.00;4.00;;;;;;;;4809380;29;28623;-96
2023/06/23 15:01:20;;;;;;;;;3.00;3.00;;;;;;;;4809798;29;28263;-96
2023/06/23 15:03:45;;;;;;;;;4.00;3.00;;;;;;;;4793698;29;28310;-96
2023/06/23 15:06:13;;;;;;;;;2.67;2.67;;;;;;;;4805680;29;28639;-96
2023/06/23 15:08:38;;;;;;;;;3.00;3.00;;;;;;;;4792561;29;28493;-96
2023/06/23 15:11:04;;;;;;;;;3.33;3.33;;;;;;;;4794156;29;28353;-96
2023/06/23 15:13:29;;;;;;;;;4.00;4.00;;;;;;;;4817258;29;28421;-96
2023/06/23 15:15:54;;;;;;;;;3.00;3.00;;;;;;;;4792594;29;28529;-96
2023/06/23 15:18:20;;;;;;;;;3.00;3.00;;;;;;;;4809477;29;29215;-96
2023/06/23 15:20:45;;;;;;;;;3.33;3.33;;;;;;;;4810578;29;28400;-96
2023/06/23 15:23:10;;;;;;;;;4.00;4.00;;;;;;;;4808653;29;28407;-95
2023/06/23 15:25:35;;;;;;;;;3.00;3.00;;;;;;;;4793328;29;28429;-96
2023/06/23 15:28:01;;;;;;;;;4.00;4.00;;;;;;;;4793074;29;29814;-96
2023/06/23 15:30:26;;;;;;;;;4.00;4.00;;;;;;;;4808883;29;28868;-96
2023/06/23 15:32:51;;;;;;;;;3.00;3.00;;;;;;;;4792756;29;28876;-96
2023/06/23 15:35:17;;;;;;;;;3.00;3.00;;;;;;;;4793483;29;29123;-96
2023/06/23 15:37:42;;;;;;;;;2.00;2.00;;;;;;;;4808055;29;29216;-96
2023/06/23 15:40:09;;;;;;;;;2.33;2.33;;;;;;;;4793307;29;29209;-96
2023/06/23 15:42:35;;;;;;;;;3.67;3.67;;;;;;;;4808874;29;29134;-96
2023/06/23 15:45:02;;;;;;;;;3.00;3.00;;;;;;;;4801229;29;29025;-96
2023/06/23 15:47:27;;;;;;;;;2.00;2.00;;;;;;;;4793498;29;31199;-96
2023/06/23 15:49:53;;;;;;;;;4.00;4.00;;;;;;;;4811546;29;29067;-96
2023/06/23 15:52:18;;;;;;;;;2.33;2.33;;;;;;;;4808399;29;29057;-96
2023/06/23 15:54:46;;;;;;;;;3.00;3.00;;;;;;;;4811787;29;29037;-96
2023/06/23 15:57:11;;;;;;;;;3.00;3.00;;;;;;;;4808338;29;29089;-96
2023/06/23 15:59:37;;;;;;;;;3.33;3.33;;;;;;;;4809580;29;29165;-96
2023/06/23 16:02:03;;;;;;;;;1.33;1.33;;;;;;;;4792092;29;29009;-96
2023/06/23 16:04:28;;;;;;;;;3.33;3.33;;;;;;;;4809305;29;28864;-96
2023/06/23 16:06:53;;;;;;;;;3.33;3.33;;;;;;;;4792278;29;31484;-96
2023/06/23 16:09:18;;;;;;;;;2.00;2.00;;;;;;;;4808371;29;29110;-96
2023/06/23 16:11:44;;;;;;;;;2.00;2.00;;;;;;;;4807716;29;29085;-96
2023/06/23 16:14:09;;;;;;;;;1.00;1.00;;;;;;;;4791472;29;28950;-96
2023/06/23 16:16:34;;;;;;;;;3.00;3.00;;;;;;;;4810627;29;30307;-96
2023/06/23 16:19:00;;;;;;;;;2.00;2.00;;;;;;;;4792116;29;29976;-96
2023/06/23 16:21:25;;;;;;;;;2.33;2.33;;;;;;;;4808123;29;28862;-96
2023/06/23 16:23:50;;;;;;;;;2.00;2.00;;;;;;;;4791897;29;28959;-95
2023/06/23 16:26:15;;;;;;;;;2.00;2.00;;;;;;;;4791677;29;31235;-96
2023/06/23 16:28:41;;;;;;;;;1.00;1.00;;;;;;;;4809695;29;28841;-96
2023/06/23 16:31:06;;;;;;;;;2.00;2.00;;;;;;;;4776032;29;28959;-96
2023/06/23 16:33:39;;;;;;;;;2.00;2.00;;;;;;;;4792605;29;29258;-96
2023/06/23 16:36:04;;;;;;;;;2.00;2.00;;;;;;;;4790710;29;31803;-96
2023/06/23 16:38:30;;;;;;;;;2.67;2.67;;;;;;;;4808007;29;28975;-96
2023/06/23 16:40:55;;;;;;;;;1.00;1.00;;;;;;;;4807814;29;28899;-96
2023/06/23 16:43:20;;;;;;;;;2.00;2.00;;;;;;;;4791919;29;29419;-95
2023/06/23 16:45:46;;;;;;;;;1.33;1.33;;;;;;;;4807451;29;28859;-96
2023/06/23 16:48:11;;;;;;;;;3.00;3.00;;;;;;;;4807605;29;28779;-95
2023/06/23 16:50:36;;;;;;;;;1.67;1.67;;;;;;;;4807740;29;28785;-96
2023/06/23 16:53:02;;;;;;;;;2.00;2.00;;;;;;;;4790368;29;28802;-96
2023/06/23 16:55:30;;;;;;;;;2.00;2.00;;;;;;;;4807920;29;28870;-96
2023/06/23 16:57:55;;;;;;;;;3.00;3.00;;;;;;;;4784312;29;29645;-96
2023/06/23 17:00:20;;;;;;;;;2.00;2.00;;;;;;;;4805600;29;28862;-96
2023/06/23 17:02:45;;;;;;;;;2.00;2.00;;;;;;;;4803358;29;28875;-96
2023/06/23 17:05:11;;;;;;;;;3.00;3.00;;;;;;;;4792795;29;29910;-96
2023/06/23 17:07:37;;;;;;;;;2.00;2.00;;;;;;;;4807985;29;28977;-96
2023/06/23 17:10:02;;;;;;;;;2.33;2.33;;;;;;;;4808206;29;28972;-96
2023/06/23 17:12:28;;;;;;;;;3.00;2.00;;;;;;;;4791334;29;28807;-96
2023/06/23 17:14:53;;;;;;;;;1.33;1.33;;;;;;;;4808049;29;28811;-96
2023/06/23 17:17:18;;;;;;;;;2.00;2.00;;;;;;;;4811367;29;29552;-96
2023/06/23 17:19:44;;;;;;;;;2.00;2.00;;;;;;;;4807010;29;28760;-94
2023/06/23 17:22:09;;;;;;;;;1.67;1.67;;;;;;;;4807986;29;28998;-96
2023/06/23 17:24:34;;;;;;;;;2.00;2.00;;;;;;;;4806885;29;28947;-96
2023/06/23 17:26:59;;;;;;;;;2.00;2.00;;;;;;;;4809158;29;28976;-96
2023/06/23 17:29:25;;;;;;;;;1.00;1.00;;;;;;;;4807056;29;28833;-96
2023/06/23 17:31:50;;;;;;;;;1.67;1.67;;;;;;;;4807128;29;28828;-95
2023/06/23 17:34:15;;;;;;;;;2.00;2.00;;;;;;;;4789463;29;30428;-96
2023/06/23 17:36:41;;;;;;;;;1.00;1.00;;;;;;;;4803364;29;29587;-96
2023/06/23 17:39:06;;;;;;;;;2.67;2.00;;;;;;;;4791565;29;29009;-96
2023/06/23 17:41:32;;;;;;;;;1.33;1.33;;;;;;;;4790015;29;28994;-96
2023/06/23 17:43:58;;;;;;;;;1.33;1.33;;;;;;;;4807385;29;29077;-96
2023/06/23 17:46:23;;;;;;;;;1.00;1.00;;;;;;;;4790428;29;29742;-96
2023/06/23 17:48:48;;;;;;;;;0.67;0.67;;;;;;;;4807966;29;29024;-96
2023/06/23 17:51:19;;;;;;;;;1.00;1.00;;;;;;;;4790915;29;29041;-96
2023/06/23 17:53:45;;;;;;;;;0.33;0.33;;;;;;;;4792574;29;30797;-95
2023/06/23 17:56:16;;;;;;;;;1.67;1.67;;;;;;;;4805785;29;28992;-96
2023/06/23 17:58:41;;;;;;;;;2.00;1.00;;;;;;;;4789843;29;28947;-96
2023/06/23 18:01:07;;;;;;;;;1.00;1.00;;;;;;;;4791041;29;28912;-95
2023/06/23 18:03:32;;;;;;;;;1.00;1.00;;;;;;;;4806273;29;28974;-96
2023/06/23 18:05:57;;;;;;;;;1.00;1.00;;;;;;;;4806940;29;29085;-96
2023/06/23 18:08:25;;;;;;;;;1.00;1.00;;;;;;;;4790631;29;29101;-95
2023/06/23 18:10:53;;;;;;;;;1.00;1.00;;;;;;;;4790616;29;29100;-96
2023/06/23 18:13:18;;;;;;;;;1.00;1.00;;;;;;;;4804807;29;29045;-96
2023/06/23 18:15:46;;;;;;;;;1.00;1.00;;;;;;;;4806475;29;29020;-96
2023/06/23 18:18:14;;;;;;;;;1.00;1.00;;;;;;;;4780635;29;28945;-96
2023/06/23 18:20:39;;;;;;;;;1.00;1.00;;;;;;;;4791128;29;28809;-96
2023/06/23 18:23:04;;;;;;;;;1.33;1.00;;;;;;;;4809581;29;29989;-96
2023/06/23 18:25:30;;;;;;;;;1.00;1.00;;;;;;;;4808854;29;28876;-96
2023/06/23 18:27:56;;;;;;;;;1.00;1.00;;;;;;;;4793208;29;29664;-96
2023/06/23 18:30:21;;;;;;;;;1.00;1.00;;;;;;;;4793238;29;28819;-96
2023/06/23 18:32:49;;;;;;;;;1.00;1.00;;;;;;;;4792747;29;30658;-95
2023/06/23 18:35:17;;;;;;;;;1.00;1.00;;;;;;;;4809771;29;28875;-96
2023/06/23 18:37:43;;;;;;;;;2.00;2.00;;;;;;;;4809716;29;28993;-95
2023/06/23 18:40:09;;;;;;;;;1.00;1.00;;;;;;;;4792060;29;28809;-96
2023/06/23 18:42:35;;;;;;;;;1.67;1.67;;;;;;;;4801741;29;29183;-96
2023/06/23 18:45:00;;;;;;;;;2.00;2.00;;;;;;;;4811220;29;28776;-96
2023/06/23 18:47:26;;;;;;;;;1.33;1.33;;;;;;;;4792472;29;28821;-96
2023/06/23 18:49:54;;;;;;;;;1.00;1.00;;;;;;;;4794507;29;29714;-96
2023/06/23 18:52:20;;;;;;;;;3.00;3.00;;;;;;;;4808818;29;31371;-96
2023/06/23 18:54:45;;;;;;;;;2.00;2.00;;;;;;;;4792319;29;29117;-96
2023/06/23 18:57:10;;;;;;;;;3.00;3.00;;;;;;;;4793567;29;29070;-96
2023/06/23 18:59:36;;;;;;;;;1.33;1.33;;;;;;;;4795724;29;29054;-96
2023/06/23 19:02:01;;;;;;;;;1.00;1.00;;;;;;;;4795339;29;30404;-96
2023/06/23 19:04:27;;;;;;;;;1.33;1.33;;;;;;;;4808694;29;29076;-96
2023/06/23 19:06:52;;;;;;;;;1.33;1.33;;;;;;;;4810134;29;29035;-95
2023/06/23 19:09:20;;;;;;;;;0.00;0.00;;;;;;;;4792369;29;29144;-96
2023/06/23 19:11:46;;;;;;;;;2.00;2.00;;;;;;;;4793289;29;32026;-96
2023/06/23 19:14:12;;;;;;;;;1.33;1.33;;;;;;;;4792785;29;29209;-96
2023/06/23 19:16:37;;;;;;;;;2.00;2.00;;;;;;;;4809485;29;28920;-96
2023/06/23 19:19:03;;;;;;;;;3.00;3.00;;;;;;;;4796017;29;28875;-96
2023/06/23 19:21:31;;;;;;;;;2.00;2.00;;;;;;;;4809291;29;29289;-96
2023/06/23 19:23:57;;;;;;;;;2.00;2.00;;;;;;;;4791807;29;29128;-96
2023/06/23 19:26:25;;;;;;;;;2.00;2.00;;;;;;;;4809656;29;29132;-96
2023/06/23 19:28:50;;;;;;;;;2.00;2.00;;;;;;;;4792120;29;28909;-96
2023/06/23 19:31:15;;;;;;;;;2.00;2.00;;;;;;;;4807106;29;28874;-96
2023/06/23 19:33:41;;;;;;;;;1.00;1.00;;;;;;;;4809011;29;28896;-96
2023/06/23 19:36:06;;;;;;;;;1.00;1.00;;;;;;;;4809287;29;28856;-96
2023/06/23 19:38:31;;;;;;;;;3.33;3.33;;;;;;;;4792588;29;28773;-96
2023/06/23 19:40:59;;;;;;;;;1.00;1.00;;;;;;;;4791275;29;31233;-96
2023/06/23 19:43:27;;;;;;;;;2.33;2.33;;;;;;;;4792578;29;28873;-96
2023/06/23 19:45:52;;;;;;;;;2.67;2.67;;;;;;;;4808460;29;29083;-96
2023/06/23 19:48:18;;;;;;;;;0.00;0.00;;;;;;;;4795682;29;29049;-96
2023/06/23 19:50:43;;;;;;;;;2.00;2.00;;;;;;;;4798273;29;29006;-96
2023/06/23 19:53:08;;;;;;;;;1.00;1.00;;;;;;;;4812746;29;28863;-96
2023/06/23 19:55:34;;;;;;;;;1.33;1.33;;;;;;;;4810677;29;29031;-96
2023/06/23 19:57:59;;;;;;;;;4.67;3.00;;;;;;;;4786441;29;29129;-96
2023/06/23 20:00:27;;;;;;;;;2.00;2.00;;;;;;;;4791196;29;30499;-95
2023/06/23 20:02:52;;;;;;;;;2.00;2.00;;;;;;;;4811824;29;28772;-96
2023/06/23 20:06:20;;;;;;;;;;;;;;;;;;;;;
2023/06/23 20:16:11;;;;;;;;;2.00;2.00;;;;;;;;4805742;29;29158;-96